sensor_id;sensor_type;location;lat;lon;timestamp;P1;durP1;ratioP1;P2;durP2;ratioP2
16159;SDS011;8185;57.818;15.224;2023-07-16T00:01:16;5.77;;;2.97;;
16159;SDS011;8185;57.818;15.224;2023-07-16T00:03:43;3.53;;;2.63;;
16159;SDS011;8185;57.818;15.224;2023-07-16T00:06:10;5.70;;;3.20;;
16159;SDS011;8185;57.818;15.224;2023-07-16T00:08:37;5.27;;;3.30;;
16159;SDS011;8185;57.818;15.224;2023-07-16T00:11:05;5.60;;;3.13;;
16159;SDS011;8185;57.818;15.224;2023-07-16T00:13:32;5.37;;;3.07;;
16159;SDS011;8185;57.818;15.224;2023-07-16T00:16:00;6.37;;;2.93;;
16159;SDS011;8185;57.818;15.224;2023-07-16T00:18:27;5.43;;;3.23;;
16159;SDS011;8185;57.818;15.224;2023-07-16T00:20:55;7.03;;;3.57;;
16159;SDS011;8185;57.818;15.224;2023-07-16T00:23:23;6.50;;;3.47;;
16159;SDS011;8185;57.818;15.224;2023-07-16T00:25:51;4.23;;;3.10;;
16159;SDS011;8185;57.818;15.224;2023-07-16T00:28:18;4.93;;;2.87;;
16159;SDS011;8185;57.818;15.224;2023-07-16T00:30:45;8.27;;;3.00;;
16159;SDS011;8185;57.818;15.224;2023-07-16T00:33:14;4.20;;;2.80;;
16159;SDS011;8185;57.818;15.224;2023-07-16T00:35:46;4.37;;;2.90;;
16159;SDS011;8185;57.818;15.224;2023-07-16T00:38:14;6.10;;;3.17;;
16159;SDS011;8185;57.818;15.224;2023-07-16T00:40:41;5.30;;;2.63;;
16159;SDS011;8185;57.818;15.224;2023-07-16T00:43:08;8.40;;;3.43;;
16159;SDS011;8185;57.818;15.224;2023-07-16T00:45:36;6.33;;;3.50;;
16159;SDS011;8185;57.818;15.224;2023-07-16T00:48:06;5.20;;;3.10;;
16159;SDS011;8185;57.818;15.224;2023-07-16T00:50:35;4.07;;;3.17;;
16159;SDS011;8185;57.818;15.224;2023-07-16T00:53:04;5.63;;;3.50;;
16159;SDS011;8185;57.818;15.224;2023-07-16T00:55:32;3.87;;;3.43;;
16159;SDS011;8185;57.818;15.224;2023-07-16T00:58:01;6.10;;;2.90;;
16159;SDS011;8185;57.818;15.224;2023-07-16T01:00:31;8.07;;;3.67;;
16159;SDS011;8185;57.818;15.224;2023-07-16T01:02:58;4.97;;;3.00;;
16159;SDS011;8185;57.818;15.224;2023-07-16T01:05:28;4.10;;;3.23;;
16159;SDS011;8185;57.818;15.224;2023-07-16T01:08:07;6.60;;;3.77;;
16159;SDS011;8185;57.818;15.224;2023-07-16T01:10:36;4.90;;;2.60;;
16159;SDS011;8185;57.818;15.224;2023-07-16T01:13:04;6.23;;;3.33;;
16159;SDS011;8185;57.818;15.224;2023-07-16T01:15:31;9.03;;;3.37;;
16159;SDS011;8185;57.818;15.224;2023-07-16T01:17:59;3.40;;;3.10;;
16159;SDS011;8185;57.818;15.224;2023-07-16T01:20:26;5.13;;;3.13;;
16159;SDS011;8185;57.818;15.224;2023-07-16T01:23:00;6.07;;;2.97;;
16159;SDS011;8185;57.818;15.224;2023-07-16T01:25:56;3.87;;;2.93;;
16159;SDS011;8185;57.818;15.224;2023-07-16T01:31:27;6.93;;;3.07;;
16159;SDS011;8185;57.818;15.224;2023-07-16T01:33:55;5.97;;;3.40;;
16159;SDS011;8185;57.818;15.224;2023-07-16T01:36:25;6.17;;;3.60;;
16159;SDS011;8185;57.818;15.224;2023-07-16T01:38:54;4.57;;;3.30;;
16159;SDS011;8185;57.818;15.224;2023-07-16T01:41:21;5.17;;;3.50;;
16159;SDS011;8185;57.818;15.224;2023-07-16T01:43:50;4.20;;;3.47;;
16159;SDS011;8185;57.818;15.224;2023-07-16T01:46:17;4.83;;;3.37;;
16159;SDS011;8185;57.818;15.224;2023-07-16T01:48:46;4.97;;;3.90;;
16159;SDS011;8185;57.818;15.224;2023-07-16T01:51:14;6.60;;;3.80;;
16159;SDS011;8185;57.818;15.224;2023-07-16T01:53:41;5.90;;;3.70;;
16159;SDS011;8185;57.818;15.224;2023-07-16T01:56:08;6.30;;;3.60;;
16159;SDS011;8185;57.818;15.224;2023-07-16T01:58:35;5.77;;;3.80;;
16159;SDS011;8185;57.818;15.224;2023-07-16T02:01:02;7.60;;;4.50;;
16159;SDS011;8185;57.818;15.224;2023-07-16T02:03:29;5.53;;;3.53;;
16159;SDS011;8185;57.818;15.224;2023-07-16T02:05:58;4.80;;;3.97;;
16159;SDS011;8185;57.818;15.224;2023-07-16T02:08:25;6.90;;;3.97;;
16159;SDS011;8185;57.818;15.224;2023-07-16T02:10:52;7.07;;;3.87;;
16159;SDS011;8185;57.818;15.224;2023-07-16T02:13:19;6.40;;;4.00;;
16159;SDS011;8185;57.818;15.224;2023-07-16T02:15:47;6.73;;;4.23;;
16159;SDS011;8185;57.818;15.224;2023-07-16T02:18:14;8.47;;;4.27;;
16159;SDS011;8185;57.818;15.224;2023-07-16T02:20:41;8.80;;;3.87;;
16159;SDS011;8185;57.818;15.224;2023-07-16T02:23:11;5.27;;;4.17;;
16159;SDS011;8185;57.818;15.224;2023-07-16T02:25:38;10.60;;;4.23;;
16159;SDS011;8185;57.818;15.224;2023-07-16T02:28:06;8.30;;;4.33;;
16159;SDS011;8185;57.818;15.224;2023-07-16T02:30:33;9.57;;;4.50;;
16159;SDS011;8185;57.818;15.224;2023-07-16T02:33:00;6.27;;;3.70;;
16159;SDS011;8185;57.818;15.224;2023-07-16T02:35:27;7.20;;;4.20;;
16159;SDS011;8185;57.818;15.224;2023-07-16T02:37:55;6.70;;;4.07;;
16159;SDS011;8185;57.818;15.224;2023-07-16T02:40:24;7.93;;;4.23;;
16159;SDS011;8185;57.818;15.224;2023-07-16T02:42:51;4.73;;;4.03;;
16159;SDS011;8185;57.818;15.224;2023-07-16T02:45:18;5.07;;;3.87;;
16159;SDS011;8185;57.818;15.224;2023-07-16T02:47:45;5.77;;;4.33;;
16159;SDS011;8185;57.818;15.224;2023-07-16T02:50:12;4.70;;;3.97;;
16159;SDS011;8185;57.818;15.224;2023-07-16T02:52:39;9.20;;;4.60;;
16159;SDS011;8185;57.818;15.224;2023-07-16T02:55:07;7.57;;;3.93;;
16159;SDS011;8185;57.818;15.224;2023-07-16T02:57:36;7.67;;;4.40;;
16159;SDS011;8185;57.818;15.224;2023-07-16T03:00:03;8.77;;;4.53;;
16159;SDS011;8185;57.818;15.224;2023-07-16T03:02:31;7.63;;;3.80;;
16159;SDS011;8185;57.818;15.224;2023-07-16T03:04:59;7.57;;;4.10;;
16159;SDS011;8185;57.818;15.224;2023-07-16T03:07:26;4.77;;;3.70;;
16159;SDS011;8185;57.818;15.224;2023-07-16T03:09:53;5.77;;;3.93;;
16159;SDS011;8185;57.818;15.224;2023-07-16T03:12:20;5.17;;;3.70;;
16159;SDS011;8185;57.818;15.224;2023-07-16T03:14:49;5.63;;;3.83;;
16159;SDS011;8185;57.818;15.224;2023-07-16T03:17:19;8.40;;;4.10;;
16159;SDS011;8185;57.818;15.224;2023-07-16T03:19:47;4.63;;;3.47;;
16159;SDS011;8185;57.818;15.224;2023-07-16T03:22:14;7.10;;;3.70;;
16159;SDS011;8185;57.818;15.224;2023-07-16T03:24:41;5.20;;;3.70;;
16159;SDS011;8185;57.818;15.224;2023-07-16T03:27:08;5.47;;;3.70;;
16159;SDS011;8185;57.818;15.224;2023-07-16T03:29:35;4.97;;;4.03;;
16159;SDS011;8185;57.818;15.224;2023-07-16T03:32:04;7.63;;;4.07;;
16159;SDS011;8185;57.818;15.224;2023-07-16T03:34:32;7.47;;;4.13;;
16159;SDS011;8185;57.818;15.224;2023-07-16T03:36:59;4.30;;;3.80;;
16159;SDS011;8185;57.818;15.224;2023-07-16T03:39:27;6.07;;;3.60;;
16159;SDS011;8185;57.818;15.224;2023-07-16T03:41:54;7.93;;;4.10;;
16159;SDS011;8185;57.818;15.224;2023-07-16T03:44:21;6.87;;;4.07;;
16159;SDS011;8185;57.818;15.224;2023-07-16T03:46:48;8.90;;;4.27;;
16159;SDS011;8185;57.818;15.224;2023-07-16T03:49:17;8.73;;;4.07;;
16159;SDS011;8185;57.818;15.224;2023-07-16T03:51:44;7.97;;;4.17;;
16159;SDS011;8185;57.818;15.224;2023-07-16T03:54:11;5.70;;;3.63;;
16159;SDS011;8185;57.818;15.224;2023-07-16T03:56:39;9.37;;;4.00;;
16159;SDS011;8185;57.818;15.224;2023-07-16T03:59:06;4.67;;;3.80;;
16159;SDS011;8185;57.818;15.224;2023-07-16T04:01:33;5.20;;;4.00;;
16159;SDS011;8185;57.818;15.224;2023-07-16T04:04:00;6.40;;;3.80;;
16159;SDS011;8185;57.818;15.224;2023-07-16T04:06:29;6.60;;;4.33;;
16159;SDS011;8185;57.818;15.224;2023-07-16T04:08:56;6.30;;;4.43;;
16159;SDS011;8185;57.818;15.224;2023-07-16T04:11:23;5.50;;;3.87;;
16159;SDS011;8185;57.818;15.224;2023-07-16T04:13:50;6.17;;;4.00;;
16159;SDS011;8185;57.818;15.224;2023-07-16T04:16:17;6.10;;;4.20;;
16159;SDS011;8185;57.818;15.224;2023-07-16T04:18:45;4.83;;;3.73;;
16159;SDS011;8185;57.818;15.224;2023-07-16T04:21:12;5.30;;;3.83;;
16159;SDS011;8185;57.818;15.224;2023-07-16T04:23:40;7.27;;;4.03;;
16159;SDS011;8185;57.818;15.224;2023-07-16T04:26:08;4.57;;;3.90;;
16159;SDS011;8185;57.818;15.224;2023-07-16T04:28:35;4.60;;;3.17;;
16159;SDS011;8185;57.818;15.224;2023-07-16T04:31:02;5.13;;;3.43;;
16159;SDS011;8185;57.818;15.224;2023-07-16T04:33:29;6.37;;;3.77;;
16159;SDS011;8185;57.818;15.224;2023-07-16T04:35:56;4.20;;;3.30;;
16159;SDS011;8185;57.818;15.224;2023-07-16T04:38:23;6.70;;;3.67;;
16159;SDS011;8185;57.818;15.224;2023-07-16T04:40:53;6.90;;;3.53;;
16159;SDS011;8185;57.818;15.224;2023-07-16T04:43:20;7.03;;;3.70;;
16159;SDS011;8185;57.818;15.224;2023-07-16T04:45:47;8.13;;;3.90;;
16159;SDS011;8185;57.818;15.224;2023-07-16T04:48:14;5.70;;;3.70;;
16159;SDS011;8185;57.818;15.224;2023-07-16T04:50:41;3.83;;;3.17;;
16159;SDS011;8185;57.818;15.224;2023-07-16T04:53:08;4.50;;;3.53;;
16159;SDS011;8185;57.818;15.224;2023-07-16T04:55:36;5.57;;;3.83;;
16159;SDS011;8185;57.818;15.224;2023-07-16T04:58:05;5.50;;;3.47;;
16159;SDS011;8185;57.818;15.224;2023-07-16T05:00:32;6.63;;;3.60;;
16159;SDS011;8185;57.818;15.224;2023-07-16T05:03:00;4.73;;;3.33;;
16159;SDS011;8185;57.818;15.224;2023-07-16T05:05:27;5.93;;;3.40;;
16159;SDS011;8185;57.818;15.224;2023-07-16T05:07:54;6.20;;;4.17;;
16159;SDS011;8185;57.818;15.224;2023-07-16T05:10:21;4.77;;;3.57;;
16159;SDS011;8185;57.818;15.224;2023-07-16T05:12:49;9.47;;;4.13;;
16159;SDS011;8185;57.818;15.224;2023-07-16T05:15:17;5.83;;;3.50;;
16159;SDS011;8185;57.818;15.224;2023-07-16T05:17:44;5.17;;;3.70;;
16159;SDS011;8185;57.818;15.224;2023-07-16T05:20:12;5.40;;;3.40;;
16159;SDS011;8185;57.818;15.224;2023-07-16T05:22:39;4.90;;;3.60;;
16159;SDS011;8185;57.818;15.224;2023-07-16T05:25:06;8.07;;;4.50;;
16159;SDS011;8185;57.818;15.224;2023-07-16T05:27:34;5.17;;;4.37;;
16159;SDS011;8185;57.818;15.224;2023-07-16T05:30:02;4.30;;;3.90;;
16159;SDS011;8185;57.818;15.224;2023-07-16T05:32:32;6.33;;;4.20;;
16159;SDS011;8185;57.818;15.224;2023-07-16T05:35:00;8.17;;;4.40;;
16159;SDS011;8185;57.818;15.224;2023-07-16T05:37:27;5.93;;;3.83;;
16159;SDS011;8185;57.818;15.224;2023-07-16T05:39:56;4.90;;;3.90;;
16159;SDS011;8185;57.818;15.224;2023-07-16T05:42:23;6.97;;;3.67;;
16159;SDS011;8185;57.818;15.224;2023-07-16T05:44:50;6.67;;;3.80;;
16159;SDS011;8185;57.818;15.224;2023-07-16T05:47:17;4.03;;;3.53;;
16159;SDS011;8185;57.818;15.224;2023-07-16T05:49:46;7.00;;;3.80;;
16159;SDS011;8185;57.818;15.224;2023-07-16T05:52:13;5.87;;;4.13;;
16159;SDS011;8185;57.818;15.224;2023-07-16T05:54:42;5.60;;;3.63;;
16159;SDS011;8185;57.818;15.224;2023-07-16T05:57:10;8.43;;;4.10;;
16159;SDS011;8185;57.818;15.224;2023-07-16T05:59:37;5.10;;;3.37;;
16159;SDS011;8185;57.818;15.224;2023-07-16T06:02:05;5.47;;;3.60;;
16159;SDS011;8185;57.818;15.224;2023-07-16T06:04:32;8.57;;;3.97;;
16159;SDS011;8185;57.818;15.224;2023-07-16T06:07:01;3.80;;;2.73;;
16159;SDS011;8185;57.818;15.224;2023-07-16T06:09:29;5.67;;;3.50;;
16159;SDS011;8185;57.818;15.224;2023-07-16T06:11:56;6.13;;;3.30;;
16159;SDS011;8185;57.818;15.224;2023-07-16T06:14:23;4.00;;;3.33;;
16159;SDS011;8185;57.818;15.224;2023-07-16T06:16:50;9.50;;;4.33;;
16159;SDS011;8185;57.818;15.224;2023-07-16T06:19:17;6.90;;;4.20;;
16159;SDS011;8185;57.818;15.224;2023-07-16T06:21:44;7.00;;;4.37;;
16159;SDS011;8185;57.818;15.224;2023-07-16T06:24:13;8.47;;;4.23;;
16159;SDS011;8185;57.818;15.224;2023-07-16T06:26:40;6.07;;;3.60;;
16159;SDS011;8185;57.818;15.224;2023-07-16T06:29:07;5.23;;;4.03;;
16159;SDS011;8185;57.818;15.224;2023-07-16T06:31:34;4.90;;;3.70;;
16159;SDS011;8185;57.818;15.224;2023-07-16T06:34:01;3.07;;;2.70;;
16159;SDS011;8185;57.818;15.224;2023-07-16T06:36:28;3.30;;;2.43;;
16159;SDS011;8185;57.818;15.224;2023-07-16T06:38:56;2.73;;;2.33;;
16159;SDS011;8185;57.818;15.224;2023-07-16T06:41:26;2.87;;;1.90;;
16159;SDS011;8185;57.818;15.224;2023-07-16T06:43:55;2.13;;;1.90;;
16159;SDS011;8185;57.818;15.224;2023-07-16T06:46:22;2.33;;;1.93;;
16159;SDS011;8185;57.818;15.224;2023-07-16T06:48:49;5.00;;;2.53;;
16159;SDS011;8185;57.818;15.224;2023-07-16T06:51:16;5.33;;;2.40;;
16159;SDS011;8185;57.818;15.224;2023-07-16T06:53:44;2.00;;;1.80;;
16159;SDS011;8185;57.818;15.224;2023-07-16T06:56:11;2.27;;;1.97;;
16159;SDS011;8185;57.818;15.224;2023-07-16T06:58:39;1.70;;;1.60;;
16159;SDS011;8185;57.818;15.224;2023-07-16T07:01:06;2.97;;;2.00;;
16159;SDS011;8185;57.818;15.224;2023-07-16T07:03:33;3.63;;;2.10;;
16159;SDS011;8185;57.818;15.224;2023-07-16T07:06:01;3.33;;;2.60;;
16159;SDS011;8185;57.818;15.224;2023-07-16T07:08:29;3.33;;;2.50;;
16159;SDS011;8185;57.818;15.224;2023-07-16T07:10:56;3.60;;;2.23;;
16159;SDS011;8185;57.818;15.224;2023-07-16T07:13:23;4.67;;;2.53;;
16159;SDS011;8185;57.818;15.224;2023-07-16T07:15:52;4.43;;;2.37;;
16159;SDS011;8185;57.818;15.224;2023-07-16T07:18:19;2.47;;;2.10;;
16159;SDS011;8185;57.818;15.224;2023-07-16T07:20:46;4.03;;;2.40;;
16159;SDS011;8185;57.818;15.224;2023-07-16T07:23:15;4.47;;;2.20;;
16159;SDS011;8185;57.818;15.224;2023-07-16T07:25:43;2.87;;;2.40;;
16159;SDS011;8185;57.818;15.224;2023-07-16T07:28:14;3.73;;;2.20;;
16159;SDS011;8185;57.818;15.224;2023-07-16T07:30:41;3.53;;;2.27;;
16159;SDS011;8185;57.818;15.224;2023-07-16T07:33:10;4.13;;;2.10;;
16159;SDS011;8185;57.818;15.224;2023-07-16T07:35:37;2.87;;;1.97;;
16159;SDS011;8185;57.818;15.224;2023-07-16T07:38:04;2.40;;;1.97;;
16159;SDS011;8185;57.818;15.224;2023-07-16T07:40:31;3.60;;;2.37;;
16159;SDS011;8185;57.818;15.224;2023-07-16T07:42:58;1.73;;;1.63;;
16159;SDS011;8185;57.818;15.224;2023-07-16T07:45:26;5.20;;;2.00;;
16159;SDS011;8185;57.818;15.224;2023-07-16T07:47:53;3.60;;;1.60;;
16159;SDS011;8185;57.818;15.224;2023-07-16T07:50:21;3.90;;;1.70;;
16159;SDS011;8185;57.818;15.224;2023-07-16T07:52:51;3.53;;;1.80;;
16159;SDS011;8185;57.818;15.224;2023-07-16T07:55:18;3.80;;;1.60;;
16159;SDS011;8185;57.818;15.224;2023-07-16T07:57:45;1.93;;;1.70;;
16159;SDS011;8185;57.818;15.224;2023-07-16T08:00:12;2.80;;;1.70;;
16159;SDS011;8185;57.818;15.224;2023-07-16T08:02:41;4.93;;;2.00;;
16159;SDS011;8185;57.818;15.224;2023-07-16T08:05:08;4.60;;;1.80;;
16159;SDS011;8185;57.818;15.224;2023-07-16T08:07:37;2.93;;;1.87;;
16159;SDS011;8185;57.818;15.224;2023-07-16T08:10:04;3.70;;;1.73;;
16159;SDS011;8185;57.818;15.224;2023-07-16T08:12:31;4.63;;;1.50;;
16159;SDS011;8185;57.818;15.224;2023-07-16T08:14:59;2.73;;;1.80;;
16159;SDS011;8185;57.818;15.224;2023-07-16T08:17:27;3.50;;;1.80;;
16159;SDS011;8185;57.818;15.224;2023-07-16T08:19:54;3.30;;;1.60;;
16159;SDS011;8185;57.818;15.224;2023-07-16T08:22:21;2.90;;;1.70;;
16159;SDS011;8185;57.818;15.224;2023-07-16T08:24:50;3.60;;;1.30;;
16159;SDS011;8185;57.818;15.224;2023-07-16T08:27:17;2.20;;;1.67;;
16159;SDS011;8185;57.818;15.224;2023-07-16T08:29:45;3.90;;;1.70;;
16159;SDS011;8185;57.818;15.224;2023-07-16T08:32:12;2.17;;;1.83;;
16159;SDS011;8185;57.818;15.224;2023-07-16T08:34:40;4.00;;;1.80;;
16159;SDS011;8185;57.818;15.224;2023-07-16T08:37:07;2.20;;;1.70;;
16159;SDS011;8185;57.818;15.224;2023-07-16T08:39:34;2.40;;;1.83;;
16159;SDS011;8185;57.818;15.224;2023-07-16T08:42:03;3.50;;;1.70;;
16159;SDS011;8185;57.818;15.224;2023-07-16T08:44:31;2.53;;;1.57;;
16159;SDS011;8185;57.818;15.224;2023-07-16T08:46:59;4.70;;;1.97;;
16159;SDS011;8185;57.818;15.224;2023-07-16T08:49:27;2.87;;;1.47;;
16159;SDS011;8185;57.818;15.224;2023-07-16T08:51:56;4.27;;;1.63;;
16159;SDS011;8185;57.818;15.224;2023-07-16T08:54:24;7.03;;;1.70;;
16159;SDS011;8185;57.818;15.224;2023-07-16T08:56:51;3.50;;;1.60;;
16159;SDS011;8185;57.818;15.224;2023-07-16T08:59:20;3.43;;;1.63;;
16159;SDS011;8185;57.818;15.224;2023-07-16T09:01:48;3.47;;;1.77;;
16159;SDS011;8185;57.818;15.224;2023-07-16T09:04:15;1.73;;;1.23;;
16159;SDS011;8185;57.818;15.224;2023-07-16T09:06:43;2.93;;;1.50;;
16159;SDS011;8185;57.818;15.224;2023-07-16T09:09:11;2.90;;;1.87;;
16159;SDS011;8185;57.818;15.224;2023-07-16T09:11:47;2.13;;;1.40;;
16159;SDS011;8185;57.818;15.224;2023-07-16T09:14:15;3.93;;;1.40;;
16159;SDS011;8185;57.818;15.224;2023-07-16T09:16:48;3.27;;;1.20;;
16159;SDS011;8185;57.818;15.224;2023-07-16T09:19:16;2.17;;;1.30;;
16159;SDS011;8185;57.818;15.224;2023-07-16T09:21:45;2.37;;;1.20;;
16159;SDS011;8185;57.818;15.224;2023-07-16T09:24:13;3.17;;;1.00;;
16159;SDS011;8185;57.818;15.224;2023-07-16T09:26:48;3.37;;;1.37;;
16159;SDS011;8185;57.818;15.224;2023-07-16T09:29:16;2.40;;;1.23;;
16159;SDS011;8185;57.818;15.224;2023-07-16T09:31:53;2.00;;;1.20;;
16159;SDS011;8185;57.818;15.224;2023-07-16T09:34:23;1.80;;;1.30;;
16159;SDS011;8185;57.818;15.224;2023-07-16T09:36:53;2.40;;;1.13;;
16159;SDS011;8185;57.818;15.224;2023-07-16T09:39:21;1.90;;;1.10;;
16159;SDS011;8185;57.818;15.224;2023-07-16T09:41:49;1.40;;;1.10;;
16159;SDS011;8185;57.818;15.224;2023-07-16T09:44:18;2.40;;;0.97;;
16159;SDS011;8185;57.818;15.224;2023-07-16T09:46:46;2.10;;;1.17;;
16159;SDS011;8185;57.818;15.224;2023-07-16T09:49:15;4.70;;;1.00;;
16159;SDS011;8185;57.818;15.224;2023-07-16T09:51:43;4.10;;;1.10;;
16159;SDS011;8185;57.818;15.224;2023-07-16T09:54:12;2.30;;;1.20;;
16159;SDS011;8185;57.818;15.224;2023-07-16T09:56:41;1.83;;;0.97;;
16159;SDS011;8185;57.818;15.224;2023-07-16T09:59:13;1.77;;;1.00;;
16159;SDS011;8185;57.818;15.224;2023-07-16T10:01:43;3.13;;;1.20;;
16159;SDS011;8185;57.818;15.224;2023-07-16T10:04:11;2.20;;;1.00;;
16159;SDS011;8185;57.818;15.224;2023-07-16T10:06:49;1.70;;;0.90;;
16159;SDS011;8185;57.818;15.224;2023-07-16T10:09:33;2.40;;;1.03;;
16159;SDS011;8185;57.818;15.224;2023-07-16T10:12:10;5.67;;;1.30;;
16159;SDS011;8185;57.818;15.224;2023-07-16T10:14:40;4.67;;;1.40;;
16159;SDS011;8185;57.818;15.224;2023-07-16T10:17:07;4.77;;;1.53;;
16159;SDS011;8185;57.818;15.224;2023-07-16T10:19:51;2.23;;;1.10;;
16159;SDS011;8185;57.818;15.224;2023-07-16T10:22:36;2.90;;;1.00;;
16159;SDS011;8185;57.818;15.224;2023-07-16T10:25:07;3.33;;;1.10;;
16159;SDS011;8185;57.818;15.224;2023-07-16T10:27:48;1.83;;;1.17;;
16159;SDS011;8185;57.818;15.224;2023-07-16T10:30:17;1.83;;;1.10;;
16159;SDS011;8185;57.818;15.224;2023-07-16T10:32:44;3.83;;;1.10;;
16159;SDS011;8185;57.818;15.224;2023-07-16T10:35:12;1.60;;;0.90;;
16159;SDS011;8185;57.818;15.224;2023-07-16T10:37:42;4.80;;;1.27;;
16159;SDS011;8185;57.818;15.224;2023-07-16T10:40:10;2.90;;;1.30;;
16159;SDS011;8185;57.818;15.224;2023-07-16T10:42:40;2.20;;;1.10;;
16159;SDS011;8185;57.818;15.224;2023-07-16T10:45:09;3.80;;;1.27;;
16159;SDS011;8185;57.818;15.224;2023-07-16T10:47:37;5.60;;;1.30;;
16159;SDS011;8185;57.818;15.224;2023-07-16T10:50:05;4.53;;;1.40;;
16159;SDS011;8185;57.818;15.224;2023-07-16T10:52:34;2.47;;;1.35;;
16159;SDS011;8185;57.818;15.224;2023-07-16T10:55:03;2.72;;;1.05;;
16159;SDS011;8185;57.818;15.224;2023-07-16T10:57:32;3.70;;;1.10;;
16159;SDS011;8185;57.818;15.224;2023-07-16T10:59:59;7.18;;;1.50;;
16159;SDS011;8185;57.818;15.224;2023-07-16T11:02:26;2.00;;;1.48;;
16159;SDS011;8185;57.818;15.224;2023-07-16T11:04:53;3.08;;;1.25;;
16159;SDS011;8185;57.818;15.224;2023-07-16T11:07:23;3.00;;;1.20;;
16159;SDS011;8185;57.818;15.224;2023-07-16T11:09:51;3.45;;;1.63;;
16159;SDS011;8185;57.818;15.224;2023-07-16T11:12:21;5.72;;;1.25;;
16159;SDS011;8185;57.818;15.224;2023-07-16T11:14:49;2.58;;;1.50;;
16159;SDS011;8185;57.818;15.224;2023-07-16T11:17:18;5.90;;;1.35;;
16159;SDS011;8185;57.818;15.224;2023-07-16T11:19:48;2.53;;;1.40;;
16159;SDS011;8185;57.818;15.224;2023-07-16T11:22:16;3.22;;;1.30;;
16159;SDS011;8185;57.818;15.224;2023-07-16T11:24:44;6.00;;;1.33;;
16159;SDS011;8185;57.818;15.224;2023-07-16T11:27:15;5.13;;;1.77;;
16159;SDS011;8185;57.818;15.224;2023-07-16T11:29:47;2.90;;;1.20;;
16159;SDS011;8185;57.818;15.224;2023-07-16T11:32:26;2.15;;;1.25;;
16159;SDS011;8185;57.818;15.224;2023-07-16T11:34:54;2.53;;;1.45;;
16159;SDS011;8185;57.818;15.224;2023-07-16T11:37:22;3.35;;;1.35;;
16159;SDS011;8185;57.818;15.224;2023-07-16T11:39:55;4.00;;;1.70;;
16159;SDS011;8185;57.818;15.224;2023-07-16T11:42:23;3.63;;;1.70;;
16159;SDS011;8185;57.818;15.224;2023-07-16T11:44:52;4.53;;;1.88;;
16159;SDS011;8185;57.818;15.224;2023-07-16T11:47:20;3.42;;;1.75;;
16159;SDS011;8185;57.818;15.224;2023-07-16T11:49:48;2.95;;;1.50;;
16159;SDS011;8185;57.818;15.224;2023-07-16T11:52:18;4.00;;;1.25;;
16159;SDS011;8185;57.818;15.224;2023-07-16T11:54:46;2.05;;;1.27;;
16159;SDS011;8185;57.818;15.224;2023-07-16T11:57:14;3.45;;;1.35;;
16159;SDS011;8185;57.818;15.224;2023-07-16T11:59:41;2.42;;;1.50;;
16159;SDS011;8185;57.818;15.224;2023-07-16T12:02:10;4.10;;;1.70;;
16159;SDS011;8185;57.818;15.224;2023-07-16T12:04:37;3.25;;;1.30;;
16159;SDS011;8185;57.818;15.224;2023-07-16T12:07:04;4.03;;;1.85;;
16159;SDS011;8185;57.818;15.224;2023-07-16T12:09:32;3.88;;;1.50;;
16159;SDS011;8185;57.818;15.224;2023-07-16T12:11:59;2.53;;;1.33;;
16159;SDS011;8185;57.818;15.224;2023-07-16T12:14:27;6.45;;;1.92;;
16159;SDS011;8185;57.818;15.224;2023-07-16T12:16:54;3.03;;;1.40;;
16159;SDS011;8185;57.818;15.224;2023-07-16T12:19:23;1.85;;;1.40;;
16159;SDS011;8185;57.818;15.224;2023-07-16T12:21:51;3.03;;;1.50;;
16159;SDS011;8185;57.818;15.224;2023-07-16T12:24:18;4.72;;;1.92;;
16159;SDS011;8185;57.818;15.224;2023-07-16T12:26:45;4.15;;;1.85;;
16159;SDS011;8185;57.818;15.224;2023-07-16T12:29:12;2.67;;;1.63;;
16159;SDS011;8185;57.818;15.224;2023-07-16T12:31:40;4.30;;;1.58;;
16159;SDS011;8185;57.818;15.224;2023-07-16T12:34:07;6.57;;;2.22;;
16159;SDS011;8185;57.818;15.224;2023-07-16T12:36:36;2.72;;;1.65;;
16159;SDS011;8185;57.818;15.224;2023-07-16T12:39:03;4.63;;;2.17;;
16159;SDS011;8185;57.818;15.224;2023-07-16T12:41:30;4.38;;;1.90;;
16159;SDS011;8185;57.818;15.224;2023-07-16T12:43:57;5.10;;;1.63;;
16159;SDS011;8185;57.818;15.224;2023-07-16T12:46:25;5.72;;;1.95;;
16159;SDS011;8185;57.818;15.224;2023-07-16T12:48:52;5.15;;;2.15;;
16159;SDS011;8185;57.818;15.224;2023-07-16T12:51:19;5.28;;;2.10;;
16159;SDS011;8185;57.818;15.224;2023-07-16T12:53:48;6.13;;;2.00;;
16159;SDS011;8185;57.818;15.224;2023-07-16T12:56:15;4.00;;;1.60;;
16159;SDS011;8185;57.818;15.224;2023-07-16T12:58:42;2.45;;;1.50;;
16159;SDS011;8185;57.818;15.224;2023-07-16T13:01:09;4.72;;;1.80;;
16159;SDS011;8185;57.818;15.224;2023-07-16T13:03:36;5.13;;;1.70;;
16159;SDS011;8185;57.818;15.224;2023-07-16T13:06:04;4.88;;;1.83;;
16159;SDS011;8185;57.818;15.224;2023-07-16T13:08:31;3.38;;;1.80;;
16159;SDS011;8185;57.818;15.224;2023-07-16T13:11:02;4.45;;;1.95;;
16159;SDS011;8185;57.818;15.224;2023-07-16T13:13:29;5.63;;;1.75;;
16159;SDS011;8185;57.818;15.224;2023-07-16T13:15:56;3.75;;;1.90;;
16159;SDS011;8185;57.818;15.224;2023-07-16T13:18:24;4.32;;;2.17;;
16159;SDS011;8185;57.818;15.224;2023-07-16T13:20:51;3.58;;;1.52;;
16159;SDS011;8185;57.818;15.224;2023-07-16T13:23:18;5.00;;;1.88;;
16159;SDS011;8185;57.818;15.224;2023-07-16T13:25:45;4.43;;;1.70;;
16159;SDS011;8185;57.818;15.224;2023-07-16T13:28:18;4.88;;;1.83;;
16159;SDS011;8185;57.818;15.224;2023-07-16T13:30:45;4.78;;;1.90;;
16159;SDS011;8185;57.818;15.224;2023-07-16T13:33:12;3.80;;;1.85;;
16159;SDS011;8185;57.818;15.224;2023-07-16T13:35:39;4.30;;;1.70;;
16159;SDS011;8185;57.818;15.224;2023-07-16T13:38:07;7.15;;;1.70;;
16159;SDS011;8185;57.818;15.224;2023-07-16T13:40:34;2.40;;;1.70;;
16159;SDS011;8185;57.818;15.224;2023-07-16T13:43:01;3.00;;;1.55;;
16159;SDS011;8185;57.818;15.224;2023-07-16T13:45:29;3.55;;;1.98;;
16159;SDS011;8185;57.818;15.224;2023-07-16T13:47:58;5.25;;;2.22;;
16159;SDS011;8185;57.818;15.224;2023-07-16T13:50:25;4.35;;;1.90;;
16159;SDS011;8185;57.818;15.224;2023-07-16T13:52:52;4.80;;;2.05;;
16159;SDS011;8185;57.818;15.224;2023-07-16T13:55:19;5.82;;;1.85;;
16159;SDS011;8185;57.818;15.224;2023-07-16T13:57:46;4.32;;;2.03;;
16159;SDS011;8185;57.818;15.224;2023-07-16T14:00:14;3.27;;;1.97;;
16159;SDS011;8185;57.818;15.224;2023-07-16T14:02:43;3.75;;;1.70;;
16159;SDS011;8185;57.818;15.224;2023-07-16T14:05:11;3.08;;;2.03;;
16159;SDS011;8185;57.818;15.224;2023-07-16T14:07:38;5.45;;;1.75;;
16159;SDS011;8185;57.818;15.224;2023-07-16T14:10:06;3.70;;;1.45;;
16159;SDS011;8185;57.818;15.224;2023-07-16T14:12:35;4.30;;;1.55;;
16159;SDS011;8185;57.818;15.224;2023-07-16T14:15:03;3.75;;;1.67;;
16159;SDS011;8185;57.818;15.224;2023-07-16T14:17:32;4.30;;;1.63;;
16159;SDS011;8185;57.818;15.224;2023-07-16T14:20:00;5.15;;;1.75;;
16159;SDS011;8185;57.818;15.224;2023-07-16T14:22:29;4.78;;;1.80;;
16159;SDS011;8185;57.818;15.224;2023-07-16T14:24:56;2.65;;;1.63;;
16159;SDS011;8185;57.818;15.224;2023-07-16T14:27:23;4.50;;;1.73;;
16159;SDS011;8185;57.818;15.224;2023-07-16T14:29:50;3.05;;;1.65;;
16159;SDS011;8185;57.818;15.224;2023-07-16T14:32:19;5.05;;;1.80;;
16159;SDS011;8185;57.818;15.224;2023-07-16T14:34:46;3.58;;;1.85;;
16159;SDS011;8185;57.818;15.224;2023-07-16T14:37:14;3.20;;;1.73;;
16159;SDS011;8185;57.818;15.224;2023-07-16T14:39:41;4.93;;;1.80;;
16159;SDS011;8185;57.818;15.224;2023-07-16T14:42:09;3.28;;;1.27;;
16159;SDS011;8185;57.818;15.224;2023-07-16T14:44:36;5.13;;;1.80;;
16159;SDS011;8185;57.818;15.224;2023-07-16T14:47:03;4.23;;;1.67;;
16159;SDS011;8185;57.818;15.224;2023-07-16T14:49:31;5.07;;;1.80;;
16159;SDS011;8185;57.818;15.224;2023-07-16T14:51:58;3.43;;;1.30;;
16159;SDS011;8185;57.818;15.224;2023-07-16T14:54:27;4.72;;;1.45;;
16159;SDS011;8185;57.818;15.224;2023-07-16T14:56:54;4.40;;;1.70;;